sensor_id;sensor_type;location;lat;lon;timestamp;P1;durP1;ratioP1;P2;durP2;ratioP2
1414;SDS011;702;49.466;11.086;2023-12-14T00:00:45;11.50;;;8.20;;
1414;SDS011;702;49.466;11.086;2023-12-14T00:03:13;9.23;;;8.20;;
1414;SDS011;702;49.466;11.086;2023-12-14T00:05:41;7.80;;;6.77;;
1414;SDS011;702;49.466;11.086;2023-12-14T00:08:10;9.03;;;8.10;;
1414;SDS011;702;49.466;11.086;2023-12-14T00:10:37;9.77;;;8.00;;
1414;SDS011;702;49.466;11.086;2023-12-14T00:13:05;8.97;;;7.83;;
1414;SDS011;702;49.466;11.086;2023-12-14T00:15:33;13.80;;;9.30;;
1414;SDS011;702;49.466;11.086;2023-12-14T00:18:00;9.13;;;8.10;;
1414;SDS011;702;49.466;11.086;2023-12-14T00:20:28;9.23;;;8.23;;
1414;SDS011;702;49.466;11.086;2023-12-14T00:22:56;12.33;;;8.70;;
1414;SDS011;702;49.466;11.086;2023-12-14T00:25:24;10.77;;;8.40;;
1414;SDS011;702;49.466;11.086;2023-12-14T00:27:51;9.30;;;8.20;;
1414;SDS011;702;49.466;11.086;2023-12-14T00:30:20;13.73;;;9.00;;
1414;SDS011;702;49.466;11.086;2023-12-14T00:32:47;12.87;;;9.23;;
1414;SDS011;702;49.466;11.086;2023-12-14T00:35:14;11.27;;;8.70;;
1414;SDS011;702;49.466;11.086;2023-12-14T00:37:42;12.37;;;9.60;;
1414;SDS011;702;49.466;11.086;2023-12-14T00:40:11;12.03;;;8.93;;
1414;SDS011;702;49.466;11.086;2023-12-14T00:42:39;11.40;;;9.23;;
1414;SDS011;702;49.466;11.086;2023-12-14T00:45:07;13.40;;;8.23;;
1414;SDS011;702;49.466;11.086;2023-12-14T00:47:35;16.80;;;9.70;;
1414;SDS011;702;49.466;11.086;2023-12-14T00:50:04;10.90;;;9.10;;
1414;SDS011;702;49.466;11.086;2023-12-14T00:52:31;13.13;;;8.90;;
1414;SDS011;702;49.466;11.086;2023-12-14T00:54:59;11.70;;;8.87;;
1414;SDS011;702;49.466;11.086;2023-12-14T00:57:28;11.87;;;9.10;;
1414;SDS011;702;49.466;11.086;2023-12-14T00:59:55;13.53;;;9.37;;
1414;SDS011;702;49.466;11.086;2023-12-14T01:02:23;14.17;;;9.70;;
1414;SDS011;702;49.466;11.086;2023-12-14T01:04:50;12.90;;;9.27;;
1414;SDS011;702;49.466;11.086;2023-12-14T01:07:17;13.07;;;9.10;;
1414;SDS011;702;49.466;11.086;2023-12-14T01:09:45;10.10;;;9.03;;
1414;SDS011;702;49.466;11.086;2023-12-14T01:12:14;13.27;;;9.20;;
1414;SDS011;702;49.466;11.086;2023-12-14T01:14:43;13.10;;;9.33;;
1414;SDS011;702;49.466;11.086;2023-12-14T01:17:10;12.90;;;9.30;;
1414;SDS011;702;49.466;11.086;2023-12-14T01:19:39;16.40;;;10.03;;
1414;SDS011;702;49.466;11.086;2023-12-14T01:22:07;11.97;;;9.10;;
1414;SDS011;702;49.466;11.086;2023-12-14T01:24:34;13.00;;;10.17;;
1414;SDS011;702;49.466;11.086;2023-12-14T01:27:02;13.73;;;9.90;;
1414;SDS011;702;49.466;11.086;2023-12-14T01:29:30;13.43;;;9.77;;
1414;SDS011;702;49.466;11.086;2023-12-14T01:32:00;13.50;;;10.70;;
1414;SDS011;702;49.466;11.086;2023-12-14T01:34:26;15.30;;;10.63;;
1414;SDS011;702;49.466;11.086;2023-12-14T01:36:53;15.13;;;10.77;;
1414;SDS011;702;49.466;11.086;2023-12-14T01:39:21;15.43;;;10.20;;
1414;SDS011;702;49.466;11.086;2023-12-14T01:41:48;13.33;;;10.10;;
1414;SDS011;702;49.466;11.086;2023-12-14T01:44:15;14.07;;;10.60;;
1414;SDS011;702;49.466;11.086;2023-12-14T01:46:43;15.60;;;12.03;;
1414;SDS011;702;49.466;11.086;2023-12-14T01:49:12;18.00;;;11.60;;
1414;SDS011;702;49.466;11.086;2023-12-14T01:51:39;14.17;;;10.23;;
1414;SDS011;702;49.466;11.086;2023-12-14T01:54:07;16.40;;;11.23;;
1414;SDS011;702;49.466;11.086;2023-12-14T01:56:34;12.57;;;10.70;;
1414;SDS011;702;49.466;11.086;2023-12-14T01:59:01;15.57;;;11.00;;
1414;SDS011;702;49.466;11.086;2023-12-14T02:04:12;17.20;;;12.20;;
1414;SDS011;702;49.466;11.086;2023-12-14T02:06:44;22.07;;;13.47;;
1414;SDS011;702;49.466;11.086;2023-12-14T02:09:11;18.30;;;11.53;;
1414;SDS011;702;49.466;11.086;2023-12-14T02:11:39;17.93;;;12.30;;
1414;SDS011;702;49.466;11.086;2023-12-14T02:14:08;16.00;;;11.70;;
1414;SDS011;702;49.466;11.086;2023-12-14T02:16:36;19.87;;;12.77;;
1414;SDS011;702;49.466;11.086;2023-12-14T02:19:05;15.80;;;11.93;;
1414;SDS011;702;49.466;11.086;2023-12-14T02:21:33;18.13;;;12.30;;
1414;SDS011;702;49.466;11.086;2023-12-14T02:24:02;22.90;;;12.83;;
1414;SDS011;702;49.466;11.086;2023-12-14T02:26:31;18.20;;;12.10;;
1414;SDS011;702;49.466;11.086;2023-12-14T02:28:58;22.73;;;13.57;;
1414;SDS011;702;49.466;11.086;2023-12-14T02:31:26;18.47;;;11.60;;
1414;SDS011;702;49.466;11.086;2023-12-14T02:33:53;25.17;;;14.27;;
1414;SDS011;702;49.466;11.086;2023-12-14T02:36:21;19.17;;;13.00;;
1414;SDS011;702;49.466;11.086;2023-12-14T02:38:49;19.40;;;13.47;;
1414;SDS011;702;49.466;11.086;2023-12-14T02:41:18;20.57;;;13.53;;
1414;SDS011;702;49.466;11.086;2023-12-14T02:43:46;19.70;;;13.90;;
1414;SDS011;702;49.466;11.086;2023-12-14T02:46:13;20.17;;;12.70;;
1414;SDS011;702;49.466;11.086;2023-12-14T02:48:42;20.10;;;13.30;;
1414;SDS011;702;49.466;11.086;2023-12-14T02:51:12;24.90;;;14.83;;
1414;SDS011;702;49.466;11.086;2023-12-14T02:53:41;19.90;;;13.60;;
1414;SDS011;702;49.466;11.086;2023-12-14T02:56:09;19.60;;;13.93;;
1414;SDS011;702;49.466;11.086;2023-12-14T02:58:38;19.17;;;13.50;;
1414;SDS011;702;49.466;11.086;2023-12-14T03:01:06;18.97;;;13.40;;
1414;SDS011;702;49.466;11.086;2023-12-14T03:03:33;20.73;;;13.20;;
1414;SDS011;702;49.466;11.086;2023-12-14T03:06:00;19.97;;;14.10;;
1414;SDS011;702;49.466;11.086;2023-12-14T03:08:29;20.73;;;14.30;;
1414;SDS011;702;49.466;11.086;2023-12-14T03:10:56;22.97;;;14.00;;
1414;SDS011;702;49.466;11.086;2023-12-14T03:13:23;19.50;;;13.87;;
1414;SDS011;702;49.466;11.086;2023-12-14T03:15:53;25.80;;;15.17;;
1414;SDS011;702;49.466;11.086;2023-12-14T03:18:20;19.17;;;13.93;;
1414;SDS011;702;49.466;11.086;2023-12-14T03:20:48;17.17;;;13.63;;
1414;SDS011;702;49.466;11.086;2023-12-14T03:23:16;21.50;;;14.27;;
1414;SDS011;702;49.466;11.086;2023-12-14T03:25:43;22.13;;;14.20;;
1414;SDS011;702;49.466;11.086;2023-12-14T03:28:11;18.50;;;13.00;;
1414;SDS011;702;49.466;11.086;2023-12-14T03:30:38;21.73;;;13.70;;
1414;SDS011;702;49.466;11.086;2023-12-14T03:33:06;18.53;;;13.90;;
1414;SDS011;702;49.466;11.086;2023-12-14T03:35:34;21.37;;;14.80;;
1414;SDS011;702;49.466;11.086;2023-12-14T03:38:02;20.87;;;14.00;;
1414;SDS011;702;49.466;11.086;2023-12-14T03:40:29;19.10;;;14.40;;
1414;SDS011;702;49.466;11.086;2023-12-14T03:42:56;19.37;;;13.33;;
1414;SDS011;702;49.466;11.086;2023-12-14T03:45:24;23.53;;;15.37;;
1414;SDS011;702;49.466;11.086;2023-12-14T03:47:52;23.70;;;14.90;;
1414;SDS011;702;49.466;11.086;2023-12-14T03:50:20;22.17;;;15.30;;
1414;SDS011;702;49.466;11.086;2023-12-14T03:52:48;23.40;;;15.50;;
1414;SDS011;702;49.466;11.086;2023-12-14T03:55:16;21.60;;;14.97;;
1414;SDS011;702;49.466;11.086;2023-12-14T03:57:43;21.43;;;14.97;;
1414;SDS011;702;49.466;11.086;2023-12-14T04:00:11;25.43;;;15.13;;
1414;SDS011;702;49.466;11.086;2023-12-14T04:02:40;25.03;;;16.10;;
1414;SDS011;702;49.466;11.086;2023-12-14T04:05:08;27.43;;;15.20;;
1414;SDS011;702;49.466;11.086;2023-12-14T04:07:37;22.80;;;15.73;;
1414;SDS011;702;49.466;11.086;2023-12-14T04:10:07;21.43;;;16.10;;
1414;SDS011;702;49.466;11.086;2023-12-14T04:12:35;25.23;;;17.20;;
1414;SDS011;702;49.466;11.086;2023-12-14T04:15:03;23.53;;;15.97;;
1414;SDS011;702;49.466;11.086;2023-12-14T04:17:32;21.23;;;15.37;;
1414;SDS011;702;49.466;11.086;2023-12-14T04:19:59;20.73;;;14.53;;
1414;SDS011;702;49.466;11.086;2023-12-14T04:22:28;22.30;;;15.30;;
1414;SDS011;702;49.466;11.086;2023-12-14T04:24:57;21.60;;;15.30;;
1414;SDS011;702;49.466;11.086;2023-12-14T04:27:25;25.13;;;15.53;;
1414;SDS011;702;49.466;11.086;2023-12-14T04:29:53;23.90;;;15.23;;
1414;SDS011;702;49.466;11.086;2023-12-14T04:32:21;25.23;;;15.67;;
1414;SDS011;702;49.466;11.086;2023-12-14T04:34:48;24.77;;;15.70;;
1414;SDS011;702;49.466;11.086;2023-12-14T04:37:15;26.70;;;16.13;;
1414;SDS011;702;49.466;11.086;2023-12-14T04:39:43;23.63;;;16.30;;
1414;SDS011;702;49.466;11.086;2023-12-14T04:42:11;23.27;;;17.07;;
1414;SDS011;702;49.466;11.086;2023-12-14T04:44:38;23.67;;;16.53;;
1414;SDS011;702;49.466;11.086;2023-12-14T04:47:06;23.60;;;15.83;;
1414;SDS011;702;49.466;11.086;2023-12-14T04:49:34;21.63;;;14.83;;
1414;SDS011;702;49.466;11.086;2023-12-14T04:52:02;24.37;;;15.33;;
1414;SDS011;702;49.466;11.086;2023-12-14T04:54:30;24.23;;;16.83;;
1414;SDS011;702;49.466;11.086;2023-12-14T04:56:57;24.73;;;15.33;;
1414;SDS011;702;49.466;11.086;2023-12-14T04:59:27;21.23;;;14.33;;
1414;SDS011;702;49.466;11.086;2023-12-14T05:01:54;21.33;;;13.60;;
1414;SDS011;702;49.466;11.086;2023-12-14T05:04:22;22.00;;;13.20;;
1414;SDS011;702;49.466;11.086;2023-12-14T05:06:49;20.23;;;13.60;;
1414;SDS011;702;49.466;11.086;2023-12-14T05:09:19;23.93;;;14.87;;
1414;SDS011;702;49.466;11.086;2023-12-14T05:11:46;22.13;;;13.90;;
1414;SDS011;702;49.466;11.086;2023-12-14T05:14:13;22.03;;;15.40;;
1414;SDS011;702;49.466;11.086;2023-12-14T05:16:43;23.17;;;14.73;;
1414;SDS011;702;49.466;11.086;2023-12-14T05:19:10;24.10;;;13.43;;
1414;SDS011;702;49.466;11.086;2023-12-14T05:21:39;18.77;;;12.90;;
1414;SDS011;702;49.466;11.086;2023-12-14T05:24:06;22.30;;;13.67;;
1414;SDS011;702;49.466;11.086;2023-12-14T05:26:33;23.83;;;14.30;;
1414;SDS011;702;49.466;11.086;2023-12-14T05:29:01;24.20;;;15.20;;
1414;SDS011;702;49.466;11.086;2023-12-14T05:31:29;23.00;;;13.77;;
1414;SDS011;702;49.466;11.086;2023-12-14T05:33:58;25.00;;;15.23;;
1414;SDS011;702;49.466;11.086;2023-12-14T05:36:25;21.43;;;14.47;;
1414;SDS011;702;49.466;11.086;2023-12-14T05:38:52;19.90;;;13.17;;
1414;SDS011;702;49.466;11.086;2023-12-14T05:41:20;20.10;;;13.80;;
1414;SDS011;702;49.466;11.086;2023-12-14T05:43:48;21.30;;;14.97;;
1414;SDS011;702;49.466;11.086;2023-12-14T05:46:22;25.80;;;15.17;;
1414;SDS011;702;49.466;11.086;2023-12-14T05:48:50;18.63;;;13.43;;
1414;SDS011;702;49.466;11.086;2023-12-14T05:51:29;22.80;;;13.53;;
1414;SDS011;702;49.466;11.086;2023-12-14T05:53:58;20.77;;;13.40;;
1414;SDS011;702;49.466;11.086;2023-12-14T05:56:25;20.97;;;12.63;;
1414;SDS011;702;49.466;11.086;2023-12-14T05:58:54;25.33;;;14.90;;
1414;SDS011;702;49.466;11.086;2023-12-14T06:01:22;27.17;;;14.00;;
1414;SDS011;702;49.466;11.086;2023-12-14T06:03:50;18.93;;;12.47;;
1414;SDS011;702;49.466;11.086;2023-12-14T06:06:18;25.40;;;15.37;;
1414;SDS011;702;49.466;11.086;2023-12-14T06:08:47;25.73;;;14.10;;
1414;SDS011;702;49.466;11.086;2023-12-14T06:11:15;22.27;;;13.13;;
1414;SDS011;702;49.466;11.086;2023-12-14T06:13:42;22.00;;;14.37;;
1414;SDS011;702;49.466;11.086;2023-12-14T06:16:10;20.27;;;13.47;;
1414;SDS011;702;49.466;11.086;2023-12-14T06:18:38;21.33;;;13.87;;
1414;SDS011;702;49.466;11.086;2023-12-14T06:21:07;22.87;;;12.83;;
1414;SDS011;702;49.466;11.086;2023-12-14T06:23:34;20.33;;;13.50;;
1414;SDS011;702;49.466;11.086;2023-12-14T06:26:04;23.40;;;14.83;;
1414;SDS011;702;49.466;11.086;2023-12-14T06:28:32;31.83;;;14.57;;
1414;SDS011;702;49.466;11.086;2023-12-14T06:30:59;20.23;;;14.47;;
1414;SDS011;702;49.466;11.086;2023-12-14T06:33:30;21.80;;;15.17;;
1414;SDS011;702;49.466;11.086;2023-12-14T06:35:57;23.27;;;13.90;;
1414;SDS011;702;49.466;11.086;2023-12-14T06:38:26;19.73;;;13.40;;
1414;SDS011;702;49.466;11.086;2023-12-14T06:40:53;23.40;;;13.87;;
1414;SDS011;702;49.466;11.086;2023-12-14T06:43:21;24.43;;;16.20;;
1414;SDS011;702;49.466;11.086;2023-12-14T06:45:49;20.90;;;13.93;;
1414;SDS011;702;49.466;11.086;2023-12-14T06:48:16;20.23;;;15.00;;
1414;SDS011;702;49.466;11.086;2023-12-14T06:50:44;24.47;;;15.27;;
1414;SDS011;702;49.466;11.086;2023-12-14T06:53:12;26.13;;;15.50;;
1414;SDS011;702;49.466;11.086;2023-12-14T06:55:42;28.37;;;15.40;;
1414;SDS011;702;49.466;11.086;2023-12-14T06:58:10;20.00;;;13.90;;
1414;SDS011;702;49.466;11.086;2023-12-14T07:00:38;22.43;;;14.90;;
1414;SDS011;702;49.466;11.086;2023-12-14T07:03:06;24.70;;;14.90;;
1414;SDS011;702;49.466;11.086;2023-12-14T07:05:34;22.80;;;14.97;;
1414;SDS011;702;49.466;11.086;2023-12-14T07:08:01;21.97;;;15.53;;
1414;SDS011;702;49.466;11.086;2023-12-14T07:10:28;25.10;;;15.03;;
1414;SDS011;702;49.466;11.086;2023-12-14T07:12:55;25.90;;;16.37;;
1414;SDS011;702;49.466;11.086;2023-12-14T07:15:23;23.43;;;14.70;;
1414;SDS011;702;49.466;11.086;2023-12-14T07:17:53;24.77;;;15.97;;
1414;SDS011;702;49.466;11.086;2023-12-14T07:20:20;26.80;;;18.17;;
1414;SDS011;702;49.466;11.086;2023-12-14T07:22:48;24.67;;;15.27;;
1414;SDS011;702;49.466;11.086;2023-12-14T07:25:16;33.00;;;15.50;;
1414;SDS011;702;49.466;11.086;2023-12-14T07:27:43;24.27;;;15.90;;
1414;SDS011;702;49.466;11.086;2023-12-14T07:30:12;33.60;;;23.88;;
1414;SDS011;702;49.466;11.086;2023-12-14T07:32:40;26.03;;;18.77;;
1414;SDS011;702;49.466;11.086;2023-12-14T07:35:08;23.03;;;16.47;;
1414;SDS011;702;49.466;11.086;2023-12-14T07:37:37;23.10;;;15.27;;
1414;SDS011;702;49.466;11.086;2023-12-14T07:40:06;23.43;;;16.30;;
1414;SDS011;702;49.466;11.086;2023-12-14T07:42:34;22.90;;;14.80;;
1414;SDS011;702;49.466;11.086;2023-12-14T07:45:01;26.30;;;16.00;;
1414;SDS011;702;49.466;11.086;2023-12-14T07:47:30;26.33;;;15.47;;
1414;SDS011;702;49.466;11.086;2023-12-14T07:49:57;22.20;;;15.67;;
1414;SDS011;702;49.466;11.086;2023-12-14T07:52:26;24.60;;;15.47;;
1414;SDS011;702;49.466;11.086;2023-12-14T07:54:54;21.00;;;14.53;;
1414;SDS011;702;49.466;11.086;2023-12-14T07:57:21;20.53;;;14.13;;
1414;SDS011;702;49.466;11.086;2023-12-14T07:59:48;24.07;;;15.50;;
1414;SDS011;702;49.466;11.086;2023-12-14T08:02:18;23.87;;;16.23;;
1414;SDS011;702;49.466;11.086;2023-12-14T08:04:45;21.37;;;14.87;;
1414;SDS011;702;49.466;11.086;2023-12-14T08:07:13;26.10;;;15.83;;
1414;SDS011;702;49.466;11.086;2023-12-14T08:09:42;22.90;;;14.93;;
1414;SDS011;702;49.466;11.086;2023-12-14T08:12:09;25.93;;;15.30;;
1414;SDS011;702;49.466;11.086;2023-12-14T08:14:37;20.80;;;15.07;;
1414;SDS011;702;49.466;11.086;2023-12-14T08:17:08;22.63;;;14.90;;
1414;SDS011;702;49.466;11.086;2023-12-14T08:19:35;28.57;;;16.27;;
1414;SDS011;702;49.466;11.086;2023-12-14T08:22:04;22.13;;;15.17;;
1414;SDS011;702;49.466;11.086;2023-12-14T08:24:31;21.03;;;15.83;;
1414;SDS011;702;49.466;11.086;2023-12-14T08:27:00;19.60;;;14.53;;
1414;SDS011;702;49.466;11.086;2023-12-14T08:29:28;24.57;;;15.30;;
1414;SDS011;702;49.466;11.086;2023-12-14T08:31:55;23.43;;;15.30;;
1414;SDS011;702;49.466;11.086;2023-12-14T08:34:24;21.30;;;14.30;;
1414;SDS011;702;49.466;11.086;2023-12-14T08:36:51;22.47;;;15.33;;
1414;SDS011;702;49.466;11.086;2023-12-14T08:39:19;21.30;;;13.97;;
1414;SDS011;702;49.466;11.086;2023-12-14T08:41:46;26.70;;;19.40;;
1414;SDS011;702;49.466;11.086;2023-12-14T08:44:16;22.83;;;15.83;;
1414;SDS011;702;49.466;11.086;2023-12-14T08:46:44;22.93;;;15.73;;
1414;SDS011;702;49.466;11.086;2023-12-14T08:49:13;23.90;;;15.77;;
1414;SDS011;702;49.466;11.086;2023-12-14T08:51:41;21.30;;;15.13;;
1414;SDS011;702;49.466;11.086;2023-12-14T08:54:09;22.50;;;15.40;;
1414;SDS011;702;49.466;11.086;2023-12-14T08:56:36;23.53;;;17.33;;
1414;SDS011;702;49.466;11.086;2023-12-14T08:59:04;24.20;;;15.80;;
1414;SDS011;702;49.466;11.086;2023-12-14T09:01:34;21.70;;;15.70;;
1414;SDS011;702;49.466;11.086;2023-12-14T09:04:01;23.90;;;16.43;;
1414;SDS011;702;49.466;11.086;2023-12-14T09:06:29;22.27;;;15.80;;
1414;SDS011;702;49.466;11.086;2023-12-14T09:08:56;23.90;;;15.73;;
1414;SDS011;702;49.466;11.086;2023-12-14T09:11:23;25.57;;;13.77;;
1414;SDS011;702;49.466;11.086;2023-12-14T09:13:50;20.33;;;12.70;;
1414;SDS011;702;49.466;11.086;2023-12-14T09:16:17;18.37;;;12.53;;
1414;SDS011;702;49.466;11.086;2023-12-14T09:18:47;17.90;;;12.70;;
1414;SDS011;702;49.466;11.086;2023-12-14T09:21:14;16.00;;;11.00;;
1414;SDS011;702;49.466;11.086;2023-12-14T09:23:42;20.40;;;12.20;;
1414;SDS011;702;49.466;11.086;2023-12-14T09:26:09;18.33;;;12.10;;
1414;SDS011;702;49.466;11.086;2023-12-14T09:28:36;20.43;;;13.30;;
1414;SDS011;702;49.466;11.086;2023-12-14T09:31:04;18.20;;;12.47;;
1414;SDS011;702;49.466;11.086;2023-12-14T09:33:31;19.50;;;13.60;;
1414;SDS011;702;49.466;11.086;2023-12-14T09:36:01;14.07;;;11.17;;
1414;SDS011;702;49.466;11.086;2023-12-14T09:38:29;17.07;;;11.30;;
1414;SDS011;702;49.466;11.086;2023-12-14T09:40:56;17.37;;;11.97;;
1414;SDS011;702;49.466;11.086;2023-12-14T09:43:24;18.13;;;13.13;;
1414;SDS011;702;49.466;11.086;2023-12-14T09:45:51;16.87;;;12.00;;
1414;SDS011;702;49.466;11.086;2023-12-14T09:48:20;21.60;;;13.57;;
1414;SDS011;702;49.466;11.086;2023-12-14T09:50:48;19.27;;;13.23;;
1414;SDS011;702;49.466;11.086;2023-12-14T09:53:18;19.43;;;13.80;;
1414;SDS011;702;49.466;11.086;2023-12-14T09:55:46;18.63;;;11.60;;
1414;SDS011;702;49.466;11.086;2023-12-14T09:58:13;18.30;;;12.97;;
1414;SDS011;702;49.466;11.086;2023-12-14T10:00:41;22.83;;;13.10;;
1414;SDS011;702;49.466;11.086;2023-12-14T10:03:18;17.33;;;11.60;;
1414;SDS011;702;49.466;11.086;2023-12-14T10:05:47;19.40;;;15.55;;
1414;SDS011;702;49.466;11.086;2023-12-14T10:08:17;17.00;;;12.60;;
1414;SDS011;702;49.466;11.086;2023-12-14T10:10:46;22.80;;;12.60;;
1414;SDS011;702;49.466;11.086;2023-12-14T10:13:17;19.10;;;13.30;;
1414;SDS011;702;49.466;11.086;2023-12-14T10:15:45;15.57;;;12.20;;
1414;SDS011;702;49.466;11.086;2023-12-14T10:18:19;20.57;;;13.60;;
1414;SDS011;702;49.466;11.086;2023-12-14T10:20:51;18.60;;;13.53;;
1414;SDS011;702;49.466;11.086;2023-12-14T10:23:20;14.53;;;11.73;;
1414;SDS011;702;49.466;11.086;2023-12-14T10:25:48;18.20;;;13.17;;
1414;SDS011;702;49.466;11.086;2023-12-14T10:28:15;20.30;;;13.50;;
1414;SDS011;702;49.466;11.086;2023-12-14T10:30:43;16.57;;;13.00;;
1414;SDS011;702;49.466;11.086;2023-12-14T10:33:10;21.47;;;13.80;;
1414;SDS011;702;49.466;11.086;2023-12-14T10:35:39;16.13;;;11.70;;
1414;SDS011;702;49.466;11.086;2023-12-14T10:38:08;17.63;;;12.23;;
1414;SDS011;702;49.466;11.086;2023-12-14T10:40:38;14.40;;;11.47;;
1414;SDS011;702;49.466;11.086;2023-12-14T10:43:08;15.87;;;11.30;;
1414;SDS011;702;49.466;11.086;2023-12-14T10:45:39;17.80;;;12.83;;
1414;SDS011;702;49.466;11.086;2023-12-14T10:48:12;18.33;;;12.20;;
1414;SDS011;702;49.466;11.086;2023-12-14T10:50:41;17.97;;;12.10;;
1414;SDS011;702;49.466;11.086;2023-12-14T10:53:09;18.80;;;12.30;;
1414;SDS011;702;49.466;11.086;2023-12-14T10:55:37;17.23;;;13.27;;
1414;SDS011;702;49.466;11.086;2023-12-14T10:58:09;14.53;;;11.50;;
1414;SDS011;702;49.466;11.086;2023-12-14T11:00:38;18.50;;;12.10;;
1414;SDS011;702;49.466;11.086;2023-12-14T11:03:05;21.43;;;12.70;;
1414;SDS011;702;49.466;11.086;2023-12-14T11:05:33;16.60;;;12.70;;
1414;SDS011;702;49.466;11.086;2023-12-14T11:08:01;18.10;;;12.33;;
1414;SDS011;702;49.466;11.086;2023-12-14T11:10:36;20.70;;;12.70;;
1414;SDS011;702;49.466;11.086;2023-12-14T11:13:06;22.43;;;12.63;;
1414;SDS011;702;49.466;11.086;2023-12-14T11:15:37;18.23;;;11.97;;
1414;SDS011;702;49.466;11.086;2023-12-14T11:18:22;17.17;;;12.80;;
1414;SDS011;702;49.466;11.086;2023-12-14T11:20:53;17.17;;;11.83;;
1414;SDS011;702;49.466;11.086;2023-12-14T11:23:27;15.20;;;11.10;;
1414;SDS011;702;49.466;11.086;2023-12-14T11:26:04;22.47;;;11.30;;
1414;SDS011;702;49.466;11.086;2023-12-14T11:28:33;16.37;;;12.43;;
1414;SDS011;702;49.466;11.086;2023-12-14T11:31:03;18.33;;;12.53;;
1414;SDS011;702;49.466;11.086;2023-12-14T11:33:33;19.70;;;12.97;;
1414;SDS011;702;49.466;11.086;2023-12-14T11:36:01;17.43;;;11.90;;
1414;SDS011;702;49.466;11.086;2023-12-14T11:38:29;15.60;;;11.40;;
1414;SDS011;702;49.466;11.086;2023-12-14T11:40:58;15.03;;;11.23;;
1414;SDS011;702;49.466;11.086;2023-12-14T11:43:26;21.90;;;11.43;;
1414;SDS011;702;49.466;11.086;2023-12-14T11:45:54;20.40;;;12.57;;
1414;SDS011;702;49.466;11.086;2023-12-14T11:48:22;17.17;;;11.47;;
1414;SDS011;702;49.466;11.086;2023-12-14T11:50:49;19.57;;;11.50;;
1414;SDS011;702;49.466;11.086;2023-12-14T11:53:17;21.13;;;12.27;;
1414;SDS011;702;49.466;11.086;2023-12-14T11:55:45;15.63;;;11.90;;
1414;SDS011;702;49.466;11.086;2023-12-14T11:58:13;16.70;;;12.30;;
1414;SDS011;702;49.466;11.086;2023-12-14T12:00:44;17.43;;;12.37;;
1414;SDS011;702;49.466;11.086;2023-12-14T12:03:12;19.77;;;12.93;;
1414;SDS011;702;49.466;11.086;2023-12-14T12:05:43;23.47;;;13.30;;
1414;SDS011;702;49.466;11.086;2023-12-14T12:08:11;17.27;;;12.30;;
1414;SDS011;702;49.466;11.086;2023-12-14T12:10:41;16.37;;;12.10;;
1414;SDS011;702;49.466;11.086;2023-12-14T12:13:11;17.77;;;13.03;;
1414;SDS011;702;49.466;11.086;2023-12-14T12:15:41;16.87;;;12.10;;
1414;SDS011;702;49.466;11.086;2023-12-14T12:18:11;15.87;;;11.07;;
1414;SDS011;702;49.466;11.086;2023-12-14T12:20:41;19.53;;;11.33;;
1414;SDS011;702;49.466;11.086;2023-12-14T12:23:09;13.33;;;10.57;;
1414;SDS011;702;49.466;11.086;2023-12-14T12:25:37;17.27;;;10.33;;
1414;SDS011;702;49.466;11.086;2023-12-14T12:28:04;14.70;;;9.60;;
1414;SDS011;702;49.466;11.086;2023-12-14T12:30:31;14.17;;;9.47;;
1414;SDS011;702;49.466;11.086;2023-12-14T12:32:59;15.50;;;10.90;;
1414;SDS011;702;49.466;11.086;2023-12-14T12:35:27;13.03;;;10.00;;
1414;SDS011;702;49.466;11.086;2023-12-14T12:37:56;14.53;;;9.50;;
1414;SDS011;702;49.466;11.086;2023-12-14T12:40:24;13.53;;;9.03;;
1414;SDS011;702;49.466;11.086;2023-12-14T12:42:53;14.73;;;9.33;;
1414;SDS011;702;49.466;11.086;2023-12-14T12:45:20;12.77;;;8.60;;
1414;SDS011;702;49.466;11.086;2023-12-14T12:47:50;11.13;;;10.00;;
1414;SDS011;702;49.466;11.086;2023-12-14T12:50:18;14.43;;;9.00;;
1414;SDS011;702;49.466;11.086;2023-12-14T12:52:46;14.97;;;9.70;;
1414;SDS011;702;49.466;11.086;2023-12-14T12:55:15;12.80;;;9.90;;
1414;SDS011;702;49.466;11.086;2023-12-14T12:57:42;13.53;;;9.70;;
1414;SDS011;702;49.466;11.086;2023-12-14T13:00:09;13.57;;;9.77;;
1414;SDS011;702;49.466;11.086;2023-12-14T13:02:38;17.40;;;10.70;;
1414;SDS011;702;49.466;11.086;2023-12-14T13:05:05;17.20;;;10.83;;
1414;SDS011;702;49.466;11.086;2023-12-14T13:07:34;14.43;;;10.60;;
1414;SDS011;702;49.466;11.086;2023-12-14T13:10:05;15.80;;;12.03;;
1414;SDS011;702;49.466;11.086;2023-12-14T13:12:34;17.13;;;12.10;;
1414;SDS011;702;49.466;11.086;2023-12-14T13:15:02;14.80;;;11.23;;
1414;SDS011;702;49.466;11.086;2023-12-14T13:17:30;20.70;;;13.33;;
1414;SDS011;702;49.466;11.086;2023-12-14T13:19:57;18.90;;;13.43;;
1414;SDS011;702;49.466;11.086;2023-12-14T13:22:25;15.40;;;12.60;;
1414;SDS011;702;49.466;11.086;2023-12-14T13:24:53;20.20;;;13.40;;
1414;SDS011;702;49.466;11.086;2023-12-14T13:27:22;16.97;;;12.63;;
1414;SDS011;702;49.466;11.086;2023-12-14T13:29:50;15.70;;;12.30;;
1414;SDS011;702;49.466;11.086;2023-12-14T13:32:17;14.97;;;11.40;;
1414;SDS011;702;49.466;11.086;2023-12-14T13:34:45;16.93;;;12.87;;
1414;SDS011;702;49.466;11.086;2023-12-14T13:37:12;16.83;;;11.87;;
1414;SDS011;702;49.466;11.086;2023-12-14T13:39:39;18.50;;;11.87;;
1414;SDS011;702;49.466;11.086;2023-12-14T13:42:08;16.70;;;12.63;;
1414;SDS011;702;49.466;11.086;2023-12-14T13:44:36;20.70;;;13.13;;
1414;SDS011;702;49.466;11.086;2023-12-14T13:47:04;21.00;;;14.03;;
1414;SDS011;702;49.466;11.086;2023-12-14T13:49:32;23.33;;;13.57;;
1414;SDS011;702;49.466;11.086;2023-12-14T13:52:00;18.37;;;13.33;;
1414;SDS011;702;49.466;11.086;2023-12-14T13:54:27;19.13;;;14.20;;
1414;SDS011;702;49.466;11.086;2023-12-14T13:56:55;21.10;;;14.17;;
1414;SDS011;702;49.466;11.086;2023-12-14T13:59:22;15.90;;;12.07;;
1414;SDS011;702;49.466;11.086;2023-12-14T14:01:51;21.60;;;13.80;;
1414;SDS011;702;49.466;11.086;2023-12-14T14:04:18;17.87;;;11.30;;
1414;SDS011;702;49.466;11.086;2023-12-14T14:06:46;17.10;;;10.73;;
1414;SDS011;702;49.466;11.086;2023-12-14T14:09:14;15.23;;;11.07;;
1414;SDS011;702;49.466;11.086;2023-12-14T14:11:41;13.73;;;10.80;;
1414;SDS011;702;49.466;11.086;2023-12-14T14:14:13;17.90;;;10.57;;
1414;SDS011;702;49.466;11.086;2023-12-14T14:16:40;12.47;;;8.60;;
1414;SDS011;702;49.466;11.086;2023-12-14T14:19:10;10.43;;;8.07;;
1414;SDS011;702;49.466;11.086;2023-12-14T14:21:37;8.20;;;6.30;;
1414;SDS011;702;49.466;11.086;2023-12-14T14:24:05;8.37;;;5.70;;
1414;SDS011;702;49.466;11.086;2023-12-14T14:26:32;9.10;;;6.20;;
1414;SDS011;702;49.466;11.086;2023-12-14T14:29:00;7.90;;;5.93;;
1414;SDS011;702;49.466;11.086;2023-12-14T14:31:27;10.80;;;6.30;;
1414;SDS011;702;49.466;11.086;2023-12-14T14:33:58;8.60;;;6.13;;
1414;SDS011;702;49.466;11.086;2023-12-14T14:36:27;5.97;;;5.03;;
1414;SDS011;702;49.466;11.086;2023-12-14T14:38:55;6.43;;;5.40;;
1414;SDS011;702;49.466;11.086;2023-12-14T14:41:22;12.10;;;7.50;;
1414;SDS011;702;49.466;11.086;2023-12-14T14:43:50;10.80;;;6.83;;
1414;SDS011;702;49.466;11.086;2023-12-14T14:46:17;8.30;;;6.03;;
1414;SDS011;702;49.466;11.086;2023-12-14T14:48:44;8.60;;;6.57;;
1414;SDS011;702;49.466;11.086;2023-12-14T14:51:12;9.88;;;7.45;;
1414;SDS011;702;49.466;11.086;2023-12-14T14:53:41;7.53;;;6.07;;
1414;SDS011;702;49.466;11.086;2023-12-14T14:56:08;7.33;;;6.20;;
1414;SDS011;702;49.466;11.086;2023-12-14T14:58:37;7.53;;;5.93;;